sensor_id;sensor_type;location;lat;lon;timestamp;temperature;humidity
15113;DHT22;7657;50.140;7.076;2023-02-23T00:01:10;10.20;99.90
15113;DHT22;7657;50.140;7.076;2023-02-23T00:03:37;10.10;99.90
15113;DHT22;7657;50.140;7.076;2023-02-23T00:06:05;10.10;99.90
15113;DHT22;7657;50.140;7.076;2023-02-23T00:08:32;10.10;99.90
15113;DHT22;7657;50.140;7.076;2023-02-23T00:11:00;10.20;99.90
15113;DHT22;7657;50.140;7.076;2023-02-23T00:13:29;10.20;99.90
15113;DHT22;7657;50.140;7.076;2023-02-23T00:15:56;10.20;99.90
15113;DHT22;7657;50.140;7.076;2023-02-23T00:18:23;10.10;99.90
15113;DHT22;7657;50.140;7.076;2023-02-23T00:20:56;10.10;99.90
15113;DHT22;7657;50.140;7.076;2023-02-23T00:23:23;10.10;99.90
15113;DHT22;7657;50.140;7.076;2023-02-23T00:25:52;10.10;99.90
15113;DHT22;7657;50.140;7.076;2023-02-23T00:28:19;10.10;99.90
15113;DHT22;7657;50.140;7.076;2023-02-23T00:30:47;10.10;99.90
15113;DHT22;7657;50.140;7.076;2023-02-23T00:33:14;10.10;99.90
15113;DHT22;7657;50.140;7.076;2023-02-23T00:35:41;10.10;99.90
15113;DHT22;7657;50.140;7.076;2023-02-23T00:38:08;10.10;99.90
15113;DHT22;7657;50.140;7.076;2023-02-23T00:40:38;10.10;99.90
15113;DHT22;7657;50.140;7.076;2023-02-23T00:43:07;10.10;99.90
15113;DHT22;7657;50.140;7.076;2023-02-23T00:45:34;10.10;99.90
15113;DHT22;7657;50.140;7.076;2023-02-23T00:48:04;10.10;99.90
15113;DHT22;7657;50.140;7.076;2023-02-23T00:50:35;10.10;99.90
15113;DHT22;7657;50.140;7.076;2023-02-23T00:53:03;10.10;99.90
15113;DHT22;7657;50.140;7.076;2023-02-23T00:55:30;10.00;99.90
15113;DHT22;7657;50.140;7.076;2023-02-23T00:57:57;9.90;99.90
15113;DHT22;7657;50.140;7.076;2023-02-23T01:00:24;9.90;99.90
15113;DHT22;7657;50.140;7.076;2023-02-23T01:02:51;9.90;99.90
15113;DHT22;7657;50.140;7.076;2023-02-23T01:05:19;10.00;99.90
15113;DHT22;7657;50.140;7.076;2023-02-23T01:07:46;10.00;99.90
15113;DHT22;7657;50.140;7.076;2023-02-23T01:10:13;10.10;99.90
15113;DHT22;7657;50.140;7.076;2023-02-23T01:12:48;10.10;99.90
15113;DHT22;7657;50.140;7.076;2023-02-23T01:15:17;10.10;99.90
15113;DHT22;7657;50.140;7.076;2023-02-23T01:17:44;10.10;99.90
15113;DHT22;7657;50.140;7.076;2023-02-23T01:20:13;10.10;99.90
15113;DHT22;7657;50.140;7.076;2023-02-23T01:22:45;10.20;99.90
15113;DHT22;7657;50.140;7.076;2023-02-23T01:25:13;10.20;99.90
15113;DHT22;7657;50.140;7.076;2023-02-23T01:27:41;10.20;99.90
15113;DHT22;7657;50.140;7.076;2023-02-23T01:30:11;10.20;99.90
15113;DHT22;7657;50.140;7.076;2023-02-23T01:32:38;10.30;99.90
15113;DHT22;7657;50.140;7.076;2023-02-23T01:35:08;10.30;99.90
15113;DHT22;7657;50.140;7.076;2023-02-23T01:37:35;10.30;99.90
15113;DHT22;7657;50.140;7.076;2023-02-23T01:40:09;10.20;99.90
15113;DHT22;7657;50.140;7.076;2023-02-23T01:42:40;10.20;99.90
15113;DHT22;7657;50.140;7.076;2023-02-23T01:45:21;10.30;99.90
15113;DHT22;7657;50.140;7.076;2023-02-23T01:47:51;10.30;99.90
15113;DHT22;7657;50.140;7.076;2023-02-23T01:50:19;10.30;99.90
15113;DHT22;7657;50.140;7.076;2023-02-23T01:52:48;10.30;99.90
15113;DHT22;7657;50.140;7.076;2023-02-23T01:55:20;10.20;99.90
15113;DHT22;7657;50.140;7.076;2023-02-23T01:57:51;10.10;99.90
15113;DHT22;7657;50.140;7.076;2023-02-23T02:00:20;10.10;99.90
15113;DHT22;7657;50.140;7.076;2023-02-23T02:02:50;10.00;99.90
15113;DHT22;7657;50.140;7.076;2023-02-23T02:05:19;10.10;99.90
15113;DHT22;7657;50.140;7.076;2023-02-23T02:07:49;9.90;99.90
15113;DHT22;7657;50.140;7.076;2023-02-23T02:10:25;9.90;99.90
15113;DHT22;7657;50.140;7.076;2023-02-23T02:13:17;10.00;99.90
15113;DHT22;7657;50.140;7.076;2023-02-23T02:16:10;10.00;99.90
15113;DHT22;7657;50.140;7.076;2023-02-23T02:21:53;10.10;99.90
15113;DHT22;7657;50.140;7.076;2023-02-23T02:24:43;10.10;99.90
15113;DHT22;7657;50.140;7.076;2023-02-23T02:27:31;10.10;99.90
15113;DHT22;7657;50.140;7.076;2023-02-23T02:30:31;10.10;99.90
15113;DHT22;7657;50.140;7.076;2023-02-23T02:36:37;10.20;99.90
15113;DHT22;7657;50.140;7.076;2023-02-23T02:39:09;10.20;99.90
15113;DHT22;7657;50.140;7.076;2023-02-23T02:41:51;10.20;99.90
15113;DHT22;7657;50.140;7.076;2023-02-23T02:44:27;10.20;99.90
15113;DHT22;7657;50.140;7.076;2023-02-23T02:47:00;10.30;99.90
15113;DHT22;7657;50.140;7.076;2023-02-23T02:49:34;10.20;99.90
15113;DHT22;7657;50.140;7.076;2023-02-23T02:52:12;10.20;99.90
15113;DHT22;7657;50.140;7.076;2023-02-23T02:54:46;10.30;99.90
15113;DHT22;7657;50.140;7.076;2023-02-23T02:57:14;10.30;99.90
15113;DHT22;7657;50.140;7.076;2023-02-23T02:59:45;10.30;99.90
15113;DHT22;7657;50.140;7.076;2023-02-23T03:02:31;10.30;99.90
15113;DHT22;7657;50.140;7.076;2023-02-23T03:05:19;10.30;99.90
15113;DHT22;7657;50.140;7.076;2023-02-23T03:08:11;10.30;99.90
15113;DHT22;7657;50.140;7.076;2023-02-23T03:11:01;10.40;99.90
15113;DHT22;7657;50.140;7.076;2023-02-23T03:13:57;10.30;99.90
15113;DHT22;7657;50.140;7.076;2023-02-23T03:16:53;10.30;99.90
15113;DHT22;7657;50.140;7.076;2023-02-23T03:19:47;10.40;99.90
15113;DHT22;7657;50.140;7.076;2023-02-23T03:22:40;10.30;99.90
15113;DHT22;7657;50.140;7.076;2023-02-23T03:25:34;10.40;99.90
15113;DHT22;7657;50.140;7.076;2023-02-23T03:28:29;10.40;99.90
15113;DHT22;7657;50.140;7.076;2023-02-23T03:31:21;10.40;99.90
15113;DHT22;7657;50.140;7.076;2023-02-23T03:34:11;10.40;99.90
15113;DHT22;7657;50.140;7.076;2023-02-23T03:37:01;10.30;99.90
15113;DHT22;7657;50.140;7.076;2023-02-23T03:39:53;10.30;99.90
15113;DHT22;7657;50.140;7.076;2023-02-23T03:42:41;10.30;99.90
15113;DHT22;7657;50.140;7.076;2023-02-23T03:45:28;10.30;99.90
15113;DHT22;7657;50.140;7.076;2023-02-23T03:48:15;10.30;99.90
15113;DHT22;7657;50.140;7.076;2023-02-23T03:51:04;10.30;99.90
15113;DHT22;7657;50.140;7.076;2023-02-23T03:53:53;10.30;99.90
15113;DHT22;7657;50.140;7.076;2023-02-23T03:56:42;10.30;99.90
15113;DHT22;7657;50.140;7.076;2023-02-23T03:59:31;10.30;99.90
15113;DHT22;7657;50.140;7.076;2023-02-23T04:02:19;10.30;99.90
15113;DHT22;7657;50.140;7.076;2023-02-23T04:05:09;10.40;99.90
15113;DHT22;7657;50.140;7.076;2023-02-23T04:07:55;10.30;99.90
15113;DHT22;7657;50.140;7.076;2023-02-23T04:10:49;10.30;99.90
15113;DHT22;7657;50.140;7.076;2023-02-23T04:13:37;10.30;99.90
15113;DHT22;7657;50.140;7.076;2023-02-23T04:16:06;10.30;99.90
15113;DHT22;7657;50.140;7.076;2023-02-23T04:18:34;10.30;99.90
15113;DHT22;7657;50.140;7.076;2023-02-23T04:21:02;10.30;99.90
15113;DHT22;7657;50.140;7.076;2023-02-23T04:23:30;10.20;99.90
15113;DHT22;7657;50.140;7.076;2023-02-23T04:25:57;10.20;99.90
15113;DHT22;7657;50.140;7.076;2023-02-23T04:28:26;10.10;99.90
15113;DHT22;7657;50.140;7.076;2023-02-23T04:30:53;10.10;99.90
15113;DHT22;7657;50.140;7.076;2023-02-23T04:33:22;10.10;99.90
15113;DHT22;7657;50.140;7.076;2023-02-23T04:35:51;10.10;99.90
15113;DHT22;7657;50.140;7.076;2023-02-23T04:38:19;10.00;99.90
15113;DHT22;7657;50.140;7.076;2023-02-23T04:40:46;10.00;99.90
15113;DHT22;7657;50.140;7.076;2023-02-23T04:43:13;10.10;99.90
15113;DHT22;7657;50.140;7.076;2023-02-23T04:45:41;10.10;99.90
15113;DHT22;7657;50.140;7.076;2023-02-23T04:48:08;10.20;99.90
15113;DHT22;7657;50.140;7.076;2023-02-23T04:50:36;10.20;99.90
15113;DHT22;7657;50.140;7.076;2023-02-23T04:53:04;10.20;99.90
15113;DHT22;7657;50.140;7.076;2023-02-23T04:55:31;10.20;99.90
15113;DHT22;7657;50.140;7.076;2023-02-23T04:57:59;10.20;99.90
15113;DHT22;7657;50.140;7.076;2023-02-23T05:00:27;10.20;99.90
15113;DHT22;7657;50.140;7.076;2023-02-23T05:02:54;10.20;99.90
15113;DHT22;7657;50.140;7.076;2023-02-23T05:05:21;10.30;99.90
15113;DHT22;7657;50.140;7.076;2023-02-23T05:07:50;10.10;99.90
15113;DHT22;7657;50.140;7.076;2023-02-23T05:10:18;10.00;99.90
15113;DHT22;7657;50.140;7.076;2023-02-23T05:12:45;9.90;99.90
15113;DHT22;7657;50.140;7.076;2023-02-23T05:15:12;9.80;99.90
15113;DHT22;7657;50.140;7.076;2023-02-23T05:17:39;9.80;99.90
15113;DHT22;7657;50.140;7.076;2023-02-23T05:20:08;9.70;99.90
15113;DHT22;7657;50.140;7.076;2023-02-23T05:22:35;9.70;99.90
15113;DHT22;7657;50.140;7.076;2023-02-23T05:25:03;9.70;99.90
15113;DHT22;7657;50.140;7.076;2023-02-23T05:27:30;9.70;99.90
15113;DHT22;7657;50.140;7.076;2023-02-23T05:29:58;9.70;99.90
15113;DHT22;7657;50.140;7.076;2023-02-23T05:32:25;9.60;99.90
15113;DHT22;7657;50.140;7.076;2023-02-23T05:34:52;9.70;99.90
15113;DHT22;7657;50.140;7.076;2023-02-23T05:37:19;9.70;99.90
15113;DHT22;7657;50.140;7.076;2023-02-23T05:39:46;9.60;99.90
15113;DHT22;7657;50.140;7.076;2023-02-23T05:42:15;9.60;99.90
15113;DHT22;7657;50.140;7.076;2023-02-23T05:44:41;9.70;99.90
15113;DHT22;7657;50.140;7.076;2023-02-23T05:47:08;9.70;99.90
15113;DHT22;7657;50.140;7.076;2023-02-23T05:49:36;9.70;99.90
15113;DHT22;7657;50.140;7.076;2023-02-23T05:52:03;9.70;99.90
15113;DHT22;7657;50.140;7.076;2023-02-23T05:54:30;9.70;99.90
15113;DHT22;7657;50.140;7.076;2023-02-23T05:56:57;9.60;99.90
15113;DHT22;7657;50.140;7.076;2023-02-23T05:59:25;9.60;99.90
15113;DHT22;7657;50.140;7.076;2023-02-23T06:01:52;9.60;99.90
15113;DHT22;7657;50.140;7.076;2023-02-23T06:04:19;9.60;99.90
15113;DHT22;7657;50.140;7.076;2023-02-23T06:06:47;9.50;99.90
15113;DHT22;7657;50.140;7.076;2023-02-23T06:09:14;9.50;99.90
15113;DHT22;7657;50.140;7.076;2023-02-23T06:11:41;9.60;99.90
15113;DHT22;7657;50.140;7.076;2023-02-23T06:14:09;9.60;99.90
15113;DHT22;7657;50.140;7.076;2023-02-23T06:16:37;9.70;99.90
15113;DHT22;7657;50.140;7.076;2023-02-23T06:19:04;9.70;99.90
15113;DHT22;7657;50.140;7.076;2023-02-23T06:21:32;9.70;99.90
15113;DHT22;7657;50.140;7.076;2023-02-23T06:23:59;9.60;99.90
15113;DHT22;7657;50.140;7.076;2023-02-23T06:26:26;9.60;99.90
15113;DHT22;7657;50.140;7.076;2023-02-23T06:28:53;9.60;99.90
15113;DHT22;7657;50.140;7.076;2023-02-23T06:31:20;9.60;99.90
15113;DHT22;7657;50.140;7.076;2023-02-23T06:33:48;9.60;99.90
15113;DHT22;7657;50.140;7.076;2023-02-23T06:36:15;9.60;99.90
15113;DHT22;7657;50.140;7.076;2023-02-23T06:38:42;9.60;99.90
15113;DHT22;7657;50.140;7.076;2023-02-23T06:41:11;9.50;99.90
15113;DHT22;7657;50.140;7.076;2023-02-23T06:43:38;9.60;99.90
15113;DHT22;7657;50.140;7.076;2023-02-23T06:46:04;9.60;99.90
15113;DHT22;7657;50.140;7.076;2023-02-23T06:48:32;9.70;99.90
15113;DHT22;7657;50.140;7.076;2023-02-23T06:51:01;9.60;99.90
15113;DHT22;7657;50.140;7.076;2023-02-23T06:53:28;9.60;99.90
15113;DHT22;7657;50.140;7.076;2023-02-23T06:55:55;9.60;99.90
15113;DHT22;7657;50.140;7.076;2023-02-23T06:58:22;9.50;99.90
15113;DHT22;7657;50.140;7.076;2023-02-23T07:00:50;9.60;99.90
15113;DHT22;7657;50.140;7.076;2023-02-23T07:03:18;9.70;99.90
15113;DHT22;7657;50.140;7.076;2023-02-23T07:05:45;9.70;99.90
15113;DHT22;7657;50.140;7.076;2023-02-23T07:08:13;9.70;99.90
15113;DHT22;7657;50.140;7.076;2023-02-23T07:10:41;9.70;99.90
15113;DHT22;7657;50.140;7.076;2023-02-23T07:13:08;9.70;99.90
15113;DHT22;7657;50.140;7.076;2023-02-23T07:15:35;9.70;99.90
15113;DHT22;7657;50.140;7.076;2023-02-23T07:18:02;9.50;99.90
15113;DHT22;7657;50.140;7.076;2023-02-23T07:20:29;9.50;99.90
15113;DHT22;7657;50.140;7.076;2023-02-23T07:22:57;9.60;99.90
15113;DHT22;7657;50.140;7.076;2023-02-23T07:25:26;9.60;99.90
15113;DHT22;7657;50.140;7.076;2023-02-23T07:27:53;9.40;99.90
15113;DHT22;7657;50.140;7.076;2023-02-23T07:30:21;9.40;99.90
15113;DHT22;7657;50.140;7.076;2023-02-23T07:32:49;9.40;99.90
15113;DHT22;7657;50.140;7.076;2023-02-23T07:35:16;9.40;99.90
15113;DHT22;7657;50.140;7.076;2023-02-23T07:37:43;9.40;99.90
15113;DHT22;7657;50.140;7.076;2023-02-23T07:40:11;9.30;99.90
15113;DHT22;7657;50.140;7.076;2023-02-23T07:42:39;9.30;99.90
15113;DHT22;7657;50.140;7.076;2023-02-23T07:45:07;9.30;99.90
15113;DHT22;7657;50.140;7.076;2023-02-23T07:47:34;9.20;99.90
15113;DHT22;7657;50.140;7.076;2023-02-23T07:50:02;9.20;99.90
15113;DHT22;7657;50.140;7.076;2023-02-23T07:52:34;9.20;99.90
15113;DHT22;7657;50.140;7.076;2023-02-23T07:55:01;9.30;99.90
15113;DHT22;7657;50.140;7.076;2023-02-23T07:57:28;9.20;99.90
15113;DHT22;7657;50.140;7.076;2023-02-23T07:59:58;9.30;99.90
15113;DHT22;7657;50.140;7.076;2023-02-23T08:02:25;9.30;99.90
15113;DHT22;7657;50.140;7.076;2023-02-23T08:04:53;9.40;99.90
15113;DHT22;7657;50.140;7.076;2023-02-23T08:07:22;9.50;99.90
15113;DHT22;7657;50.140;7.076;2023-02-23T08:09:50;9.60;99.90
15113;DHT22;7657;50.140;7.076;2023-02-23T08:12:18;9.60;99.90
15113;DHT22;7657;50.140;7.076;2023-02-23T08:14:45;9.60;99.90
15113;DHT22;7657;50.140;7.076;2023-02-23T08:17:13;9.70;99.90
15113;DHT22;7657;50.140;7.076;2023-02-23T08:19:40;9.70;99.90
15113;DHT22;7657;50.140;7.076;2023-02-23T08:22:07;9.70;99.90
15113;DHT22;7657;50.140;7.076;2023-02-23T08:24:33;9.70;99.90
15113;DHT22;7657;50.140;7.076;2023-02-23T08:27:01;9.80;99.90
15113;DHT22;7657;50.140;7.076;2023-02-23T08:29:28;9.80;99.90
15113;DHT22;7657;50.140;7.076;2023-02-23T08:31:55;10.00;99.90
15113;DHT22;7657;50.140;7.076;2023-02-23T08:34:23;10.00;99.90
15113;DHT22;7657;50.140;7.076;2023-02-23T08:36:50;9.90;99.90
15113;DHT22;7657;50.140;7.076;2023-02-23T08:39:18;10.00;99.90
15113;DHT22;7657;50.140;7.076;2023-02-23T08:41:45;10.00;99.90
15113;DHT22;7657;50.140;7.076;2023-02-23T08:44:12;9.90;99.90
15113;DHT22;7657;50.140;7.076;2023-02-23T08:46:39;9.80;99.90
15113;DHT22;7657;50.140;7.076;2023-02-23T08:49:06;9.70;99.90
15113;DHT22;7657;50.140;7.076;2023-02-23T08:51:37;9.80;99.90
15113;DHT22;7657;50.140;7.076;2023-02-23T08:54:06;9.70;99.90
15113;DHT22;7657;50.140;7.076;2023-02-23T08:56:37;9.70;99.90
15113;DHT22;7657;50.140;7.076;2023-02-23T08:59:04;9.60;99.90
15113;DHT22;7657;50.140;7.076;2023-02-23T09:01:31;9.60;99.90
15113;DHT22;7657;50.140;7.076;2023-02-23T09:03:58;9.50;99.90
15113;DHT22;7657;50.140;7.076;2023-02-23T09:06:25;9.70;99.90
15113;DHT22;7657;50.140;7.076;2023-02-23T09:08:54;9.60;99.90
15113;DHT22;7657;50.140;7.076;2023-02-23T09:11:22;9.70;99.90
15113;DHT22;7657;50.140;7.076;2023-02-23T09:13:49;9.70;99.90
15113;DHT22;7657;50.140;7.076;2023-02-23T09:16:16;9.60;99.90
15113;DHT22;7657;50.140;7.076;2023-02-23T09:18:43;9.60;99.90
15113;DHT22;7657;50.140;7.076;2023-02-23T09:21:14;9.60;99.90
15113;DHT22;7657;50.140;7.076;2023-02-23T09:23:43;9.70;99.90
15113;DHT22;7657;50.140;7.076;2023-02-23T09:26:11;9.70;99.90
15113;DHT22;7657;50.140;7.076;2023-02-23T09:28:38;9.70;99.90
15113;DHT22;7657;50.140;7.076;2023-02-23T09:31:06;9.70;99.90
15113;DHT22;7657;50.140;7.076;2023-02-23T09:33:33;9.70;99.90
15113;DHT22;7657;50.140;7.076;2023-02-23T09:36:04;9.80;99.90
15113;DHT22;7657;50.140;7.076;2023-02-23T09:38:31;9.80;99.90
15113;DHT22;7657;50.140;7.076;2023-02-23T09:40:58;9.70;99.90
15113;DHT22;7657;50.140;7.076;2023-02-23T09:43:30;9.90;99.90
15113;DHT22;7657;50.140;7.076;2023-02-23T09:46:10;10.00;99.90
15113;DHT22;7657;50.140;7.076;2023-02-23T09:48:40;10.00;99.90
15113;DHT22;7657;50.140;7.076;2023-02-23T09:51:09;10.10;99.90
15113;DHT22;7657;50.140;7.076;2023-02-23T09:53:42;10.20;99.90
15113;DHT22;7657;50.140;7.076;2023-02-23T09:56:13;10.20;99.90
15113;DHT22;7657;50.140;7.076;2023-02-23T09:58:44;10.20;99.90
15113;DHT22;7657;50.140;7.076;2023-02-23T10:01:37;10.20;99.90
15113;DHT22;7657;50.140;7.076;2023-02-23T10:04:10;10.40;99.90
15113;DHT22;7657;50.140;7.076;2023-02-23T10:06:40;10.50;99.90
15113;DHT22;7657;50.140;7.076;2023-02-23T10:09:16;10.50;99.90
15113;DHT22;7657;50.140;7.076;2023-02-23T10:11:47;10.50;99.90
15113;DHT22;7657;50.140;7.076;2023-02-23T10:14:33;10.60;99.90
15113;DHT22;7657;50.140;7.076;2023-02-23T10:17:14;10.70;99.90
15113;DHT22;7657;50.140;7.076;2023-02-23T10:19:52;10.60;99.90
15113;DHT22;7657;50.140;7.076;2023-02-23T10:22:22;10.80;99.90
15113;DHT22;7657;50.140;7.076;2023-02-23T10:24:53;10.80;99.90
15113;DHT22;7657;50.140;7.076;2023-02-23T10:27:24;10.90;99.90
15113;DHT22;7657;50.140;7.076;2023-02-23T10:29:56;10.90;99.90
15113;DHT22;7657;50.140;7.076;2023-02-23T10:32:31;10.90;99.90
15113;DHT22;7657;50.140;7.076;2023-02-23T10:35:09;10.90;99.90
15113;DHT22;7657;50.140;7.076;2023-02-23T10:37:37;10.90;99.90
15113;DHT22;7657;50.140;7.076;2023-02-23T10:40:05;11.00;99.90
15113;DHT22;7657;50.140;7.076;2023-02-23T10:42:33;11.00;99.90
15113;DHT22;7657;50.140;7.076;2023-02-23T10:45:01;11.00;99.90
15113;DHT22;7657;50.140;7.076;2023-02-23T10:47:30;11.10;99.90
15113;DHT22;7657;50.140;7.076;2023-02-23T10:49:58;11.20;99.90
15113;DHT22;7657;50.140;7.076;2023-02-23T10:52:29;11.20;99.90
15113;DHT22;7657;50.140;7.076;2023-02-23T10:54:58;11.40;99.90
15113;DHT22;7657;50.140;7.076;2023-02-23T10:57:29;11.40;99.90
15113;DHT22;7657;50.140;7.076;2023-02-23T11:00:23;11.40;99.90
15113;DHT22;7657;50.140;7.076;2023-02-23T11:02:55;11.50;99.90
15113;DHT22;7657;50.140;7.076;2023-02-23T11:05:35;11.40;99.90
15113;DHT22;7657;50.140;7.076;2023-02-23T11:08:13;11.40;99.90
15113;DHT22;7657;50.140;7.076;2023-02-23T11:10:54;11.40;99.90
15113;DHT22;7657;50.140;7.076;2023-02-23T11:13:22;11.40;99.90
15113;DHT22;7657;50.140;7.076;2023-02-23T11:15:58;11.40;99.90
15113;DHT22;7657;50.140;7.076;2023-02-23T11:18:26;11.30;99.90
15113;DHT22;7657;50.140;7.076;2023-02-23T11:20:54;11.30;99.90
15113;DHT22;7657;50.140;7.076;2023-02-23T11:23:23;11.40;99.90
15113;DHT22;7657;50.140;7.076;2023-02-23T11:25:55;11.30;99.90
15113;DHT22;7657;50.140;7.076;2023-02-23T11:28:28;11.30;99.90
15113;DHT22;7657;50.140;7.076;2023-02-23T11:31:00;11.30;99.90
15113;DHT22;7657;50.140;7.076;2023-02-23T11:33:31;11.30;99.90
15113;DHT22;7657;50.140;7.076;2023-02-23T11:36:14;11.40;99.90
15113;DHT22;7657;50.140;7.076;2023-02-23T11:38:43;11.40;99.90
15113;DHT22;7657;50.140;7.076;2023-02-23T11:41:20;11.40;99.90
15113;DHT22;7657;50.140;7.076;2023-02-23T11:43:48;11.40;99.90
15113;DHT22;7657;50.140;7.076;2023-02-23T11:46:18;11.30;99.90
15113;DHT22;7657;50.140;7.076;2023-02-23T11:48:48;11.40;99.90
15113;DHT22;7657;50.140;7.076;2023-02-23T11:51:23;11.40;99.90
15113;DHT22;7657;50.140;7.076;2023-02-23T11:53:51;11.40;99.90
15113;DHT22;7657;50.140;7.076;2023-02-23T11:56:20;11.50;99.90
15113;DHT22;7657;50.140;7.076;2023-02-23T11:58:49;11.50;99.90
15113;DHT22;7657;50.140;7.076;2023-02-23T12:01:22;11.30;99.90
15113;DHT22;7657;50.140;7.076;2023-02-23T12:04:00;11.40;99.90
15113;DHT22;7657;50.140;7.076;2023-02-23T12:06:30;11.40;99.90
15113;DHT22;7657;50.140;7.076;2023-02-23T12:09:02;11.50;99.90
15113;DHT22;7657;50.140;7.076;2023-02-23T12:11:36;11.60;99.90
15113;DHT22;7657;50.140;7.076;2023-02-23T12:14:09;11.60;99.90
15113;DHT22;7657;50.140;7.076;2023-02-23T12:16:42;11.60;99.90
15113;DHT22;7657;50.140;7.076;2023-02-23T12:19:23;11.60;99.90
15113;DHT22;7657;50.140;7.076;2023-02-23T12:21:57;11.60;99.90
15113;DHT22;7657;50.140;7.076;2023-02-23T12:24:34;11.60;99.90
15113;DHT22;7657;50.140;7.076;2023-02-23T12:27:08;11.80;99.90
15113;DHT22;7657;50.140;7.076;2023-02-23T12:29:43;11.80;99.90
15113;DHT22;7657;50.140;7.076;2023-02-23T12:32:19;11.70;99.90
15113;DHT22;7657;50.140;7.076;2023-02-23T12:34:53;11.80;99.90
15113;DHT22;7657;50.140;7.076;2023-02-23T12:37:36;11.90;99.90
15113;DHT22;7657;50.140;7.076;2023-02-23T12:40:12;12.00;99.90
15113;DHT22;7657;50.140;7.076;2023-02-23T12:42:45;12.00;99.90
15113;DHT22;7657;50.140;7.076;2023-02-23T12:45:21;12.00;99.90
15113;DHT22;7657;50.140;7.076;2023-02-23T12:47:53;12.00;99.90
15113;DHT22;7657;50.140;7.076;2023-02-23T12:50:26;12.10;99.90
15113;DHT22;7657;50.140;7.076;2023-02-23T12:52:57;12.10;99.90
15113;DHT22;7657;50.140;7.076;2023-02-23T12:55:33;11.90;99.90
15113;DHT22;7657;50.140;7.076;2023-02-23T12:58:11;11.90;99.90
15113;DHT22;7657;50.140;7.076;2023-02-23T13:00:46;12.00;99.90
15113;DHT22;7657;50.140;7.076;2023-02-23T13:03:39;12.00;99.90
15113;DHT22;7657;50.140;7.076;2023-02-23T13:06:16;12.00;99.90
15113;DHT22;7657;50.140;7.076;2023-02-23T13:08:55;12.10;99.90
15113;DHT22;7657;50.140;7.076;2023-02-23T13:11:40;12.00;99.90
15113;DHT22;7657;50.140;7.076;2023-02-23T13:14:13;12.00;99.90
15113;DHT22;7657;50.140;7.076;2023-02-23T13:16:46;11.80;99.90
15113;DHT22;7657;50.140;7.076;2023-02-23T13:19:18;11.70;99.90
15113;DHT22;7657;50.140;7.076;2023-02-23T13:21:51;11.70;99.90
15113;DHT22;7657;50.140;7.076;2023-02-23T13:24:23;11.70;99.90
15113;DHT22;7657;50.140;7.076;2023-02-23T13:26:54;11.60;99.90
15113;DHT22;7657;50.140;7.076;2023-02-23T13:29:30;11.50;99.90
15113;DHT22;7657;50.140;7.076;2023-02-23T13:31:59;11.50;99.90
15113;DHT22;7657;50.140;7.076;2023-02-23T13:34:30;11.60;99.90
15113;DHT22;7657;50.140;7.076;2023-02-23T13:37:01;11.70;99.90
15113;DHT22;7657;50.140;7.076;2023-02-23T13:39:47;11.70;99.90
15113;DHT22;7657;50.140;7.076;2023-02-23T13:42:24;11.70;99.90
15113;DHT22;7657;50.140;7.076;2023-02-23T13:45:00;11.60;99.90
15113;DHT22;7657;50.140;7.076;2023-02-23T13:47:36;11.70;99.90
15113;DHT22;7657;50.140;7.076;2023-02-23T13:50:15;11.70;99.90
15113;DHT22;7657;50.140;7.076;2023-02-23T13:52:45;11.70;99.90
15113;DHT22;7657;50.140;7.076;2023-02-23T13:55:32;11.70;99.90
15113;DHT22;7657;50.140;7.076;2023-02-23T13:58:04;11.80;99.90
15113;DHT22;7657;50.140;7.076;2023-02-23T14:00:32;11.70;99.90
15113;DHT22;7657;50.140;7.076;2023-02-23T14:03:02;11.60;99.90
15113;DHT22;7657;50.140;7.076;2023-02-23T14:05:41;11.60;99.90
15113;DHT22;7657;50.140;7.076;2023-02-23T14:08:21;11.60;99.90
15113;DHT22;7657;50.140;7.076;2023-02-23T14:10:50;11.60;99.90
15113;DHT22;7657;50.140;7.076;2023-02-23T14:13:28;11.50;99.90
15113;DHT22;7657;50.140;7.076;2023-02-23T14:16:16;11.60;99.90
15113;DHT22;7657;50.140;7.076;2023-02-23T14:18:55;11.60;99.90
15113;DHT22;7657;50.140;7.076;2023-02-23T14:21:29;11.60;99.90
15113;DHT22;7657;50.140;7.076;2023-02-23T14:24:13;11.50;99.90
15113;DHT22;7657;50.140;7.076;2023-02-23T14:26:44;11.50;99.90
15113;DHT22;7657;50.140;7.076;2023-02-23T14:29:26;11.40;99.90
15113;DHT22;7657;50.140;7.076;2023-02-23T14:32:02;11.40;99.90
15113;DHT22;7657;50.140;7.076;2023-02-23T14:34:46;11.40;99.90
15113;DHT22;7657;50.140;7.076;2023-02-23T14:37:26;11.40;99.90
15113;DHT22;7657;50.140;7.076;2023-02-23T14:40:00;11.30;99.90
15113;DHT22;7657;50.140;7.076;2023-02-23T14:42:29;11.30;99.90
15113;DHT22;7657;50.140;7.076;2023-02-23T14:45:03;11.20;99.90
15113;DHT22;7657;50.140;7.076;2023-02-23T14:47:40;11.20;99.90
15113;DHT22;7657;50.140;7.076;2023-02-23T14:50:12;11.10;99.90
15113;DHT22;7657;50.140;7.076;2023-02-23T14:52:43;11.00;99.90
15113;DHT22;7657;50.140;7.076;2023-02-23T14:55:21;11.00;99.90
15113;DHT22;7657;50.140;7.076;2023-02-23T14:57:49;11.10;99.90
15113;DHT22;7657;50.140;7.076;2023-02-23T15:00:20;11.20;99.90
15113;DHT22;7657;50.140;7.076;2023-02-23T15:02:53;11.10;99.90
15113;DHT22;7657;50.140;7.076;2023-02-23T15:05:23;11.20;99.90
15113;DHT22;7657;50.140;7.076;2023-02-23T15:07:52;11.20;99.90
15113;DHT22;7657;50.140;7.076;2023-02-23T15:10:25;11.20;99.90
15113;DHT22;7657;50.140;7.076;2023-02-23T15:12:53;11.10;99.90
15113;DHT22;7657;50.140;7.076;2023-02-23T15:15:23;11.00;99.90
15113;DHT22;7657;50.140;7.076;2023-02-23T15:17:53;11.00;99.90
15113;DHT22;7657;50.140;7.076;2023-02-23T15:20:23;11.00;99.90
15113;DHT22;7657;50.140;7.076;2023-02-23T15:22:55;11.00;99.90
15113;DHT22;7657;50.140;7.076;2023-02-23T15:25:25;11.00;99.90
15113;DHT22;7657;50.140;7.076;2023-02-23T15:27:58;11.10;99.90
15113;DHT22;7657;50.140;7.076;2023-02-23T15:30:45;11.10;99.90
15113;DHT22;7657;50.140;7.076;2023-02-23T15:33:15;11.00;99.90
15113;DHT22;7657;50.140;7.076;2023-02-23T15:35:51;11.00;99.90
15113;DHT22;7657;50.140;7.076;2023-02-23T15:38:23;11.00;99.90
15113;DHT22;7657;50.140;7.076;2023-02-23T15:40:53;10.90;99.90
15113;DHT22;7657;50.140;7.076;2023-02-23T15:43:21;11.10;99.90
15113;DHT22;7657;50.140;7.076;2023-02-23T15:45:50;11.00;99.90
15113;DHT22;7657;50.140;7.076;2023-02-23T15:48:20;11.00;99.90
15113;DHT22;7657;50.140;7.076;2023-02-23T15:50:49;10.90;99.90
15113;DHT22;7657;50.140;7.076;2023-02-23T15:53:26;10.80;99.90
15113;DHT22;7657;50.140;7.076;2023-02-23T15:55:55;10.90;99.90
15113;DHT22;7657;50.140;7.076;2023-02-23T15:58:27;10.90;99.90
15113;DHT22;7657;50.140;7.076;2023-02-23T16:00:56;10.70;99.90
15113;DHT22;7657;50.140;7.076;2023-02-23T16:03:27;10.70;99.90
15113;DHT22;7657;50.140;7.076;2023-02-23T16:05:59;10.60;99.90
15113;DHT22;7657;50.140;7.076;2023-02-23T16:08:28;10.50;99.90
15113;DHT22;7657;50.140;7.076;2023-02-23T16:11:03;10.50;99.90
15113;DHT22;7657;50.140;7.076;2023-02-23T16:13:32;10.40;99.90
15113;DHT22;7657;50.140;7.076;2023-02-23T16:15:59;10.40;99.90
15113;DHT22;7657;50.140;7.076;2023-02-23T16:18:35;10.40;99.90
15113;DHT22;7657;50.140;7.076;2023-02-23T16:21:04;10.40;99.90
15113;DHT22;7657;50.140;7.076;2023-02-23T16:23:39;10.40;99.90
15113;DHT22;7657;50.140;7.076;2023-02-23T16:26:10;10.50;99.90
15113;DHT22;7657;50.140;7.076;2023-02-23T16:28:41;10.50;99.90